sensor_id;sensor_type;location;lat;lon;timestamp;pressure;altitude;pressure_sealevel;temperature;humidity
71195;BME280;58908;51.426;7.714;2023-08-21T00:01:09;100432.91;;;17.27;100.00
71195;BME280;58908;51.426;7.714;2023-08-21T00:03:35;100423.13;;;17.27;100.00
71195;BME280;58908;51.426;7.714;2023-08-21T00:06:01;100428.13;;;17.32;100.00
71195;BME280;58908;51.426;7.714;2023-08-21T00:08:27;100424.47;;;17.09;100.00
71195;BME280;58908;51.426;7.714;2023-08-21T00:10:55;100421.72;;;16.98;100.00
71195;BME280;58908;51.426;7.714;2023-08-21T00:13:21;100418.84;;;17.01;100.00
71195;BME280;58908;51.426;7.714;2023-08-21T00:15:48;100412.31;;;17.05;100.00
71195;BME280;58908;51.426;7.714;2023-08-21T00:18:15;100426.16;;;17.10;100.00
71195;BME280;58908;51.426;7.714;2023-08-21T00:20:41;100426.94;;;17.12;100.00
71195;BME280;58908;51.426;7.714;2023-08-21T00:23:08;100422.25;;;17.03;100.00
71195;BME280;58908;51.426;7.714;2023-08-21T00:25:34;100421.78;;;16.86;100.00
71195;BME280;58908;51.426;7.714;2023-08-21T00:28:01;100411.53;;;16.80;100.00
71195;BME280;58908;51.426;7.714;2023-08-21T00:30:27;100410.91;;;16.77;100.00
71195;BME280;58908;51.426;7.714;2023-08-21T00:32:53;100414.34;;;16.79;100.00
71195;BME280;58908;51.426;7.714;2023-08-21T00:35:21;100409.41;;;16.85;100.00
71195;BME280;58908;51.426;7.714;2023-08-21T00:37:47;100408.00;;;16.92;100.00
71195;BME280;58908;51.426;7.714;2023-08-21T00:40:13;100409.41;;;16.85;100.00
71195;BME280;58908;51.426;7.714;2023-08-21T00:42:39;100408.59;;;16.72;100.00
71195;BME280;58908;51.426;7.714;2023-08-21T00:45:06;100406.34;;;16.79;100.00
71195;BME280;58908;51.426;7.714;2023-08-21T00:47:33;100414.13;;;16.69;100.00
71195;BME280;58908;51.426;7.714;2023-08-21T00:49:59;100420.41;;;16.68;100.00
71195;BME280;58908;51.426;7.714;2023-08-21T00:52:28;100413.41;;;16.67;100.00
71195;BME280;58908;51.426;7.714;2023-08-21T00:54:54;100422.69;;;16.62;100.00
71195;BME280;58908;51.426;7.714;2023-08-21T00:57:21;100419.59;;;16.55;100.00
71195;BME280;58908;51.426;7.714;2023-08-21T00:59:49;100428.66;;;16.53;100.00
71195;BME280;58908;51.426;7.714;2023-08-21T01:02:15;100431.13;;;16.43;100.00
71195;BME280;58908;51.426;7.714;2023-08-21T01:04:43;100430.69;;;16.37;100.00
71195;BME280;58908;51.426;7.714;2023-08-21T01:07:09;100425.97;;;16.28;100.00
71195;BME280;58908;51.426;7.714;2023-08-21T01:09:39;100430.66;;;16.24;100.00
71195;BME280;58908;51.426;7.714;2023-08-21T01:12:23;100430.88;;;16.21;100.00
71195;BME280;58908;51.426;7.714;2023-08-21T01:14:51;100434.91;;;16.14;100.00
71195;BME280;58908;51.426;7.714;2023-08-21T01:17:20;100431.28;;;16.15;100.00
71195;BME280;58908;51.426;7.714;2023-08-21T01:19:48;100430.69;;;16.12;100.00
71195;BME280;58908;51.426;7.714;2023-08-21T01:22:15;100430.78;;;16.10;100.00
71195;BME280;58908;51.426;7.714;2023-08-21T01:24:43;100431.72;;;16.09;100.00
71195;BME280;58908;51.426;7.714;2023-08-21T01:27:09;100427.06;;;16.13;100.00
71195;BME280;58908;51.426;7.714;2023-08-21T01:29:36;100432.16;;;16.16;100.00
71195;BME280;58908;51.426;7.714;2023-08-21T01:32:05;100426.41;;;16.09;100.00
71195;BME280;58908;51.426;7.714;2023-08-21T01:34:33;100431.50;;;16.12;100.00
71195;BME280;58908;51.426;7.714;2023-08-21T01:37:00;100436.84;;;16.12;100.00
71195;BME280;58908;51.426;7.714;2023-08-21T01:39:27;100449.41;;;16.10;100.00
71195;BME280;58908;51.426;7.714;2023-08-21T01:41:55;100452.28;;;16.07;100.00
71195;BME280;58908;51.426;7.714;2023-08-21T01:44:21;100447.78;;;16.08;100.00
71195;BME280;58908;51.426;7.714;2023-08-21T01:46:48;100450.03;;;16.01;100.00
71195;BME280;58908;51.426;7.714;2023-08-21T01:49:14;100450.47;;;15.95;100.00
71195;BME280;58908;51.426;7.714;2023-08-21T01:51:40;100452.16;;;15.96;100.00
71195;BME280;58908;51.426;7.714;2023-08-21T01:54:07;100449.28;;;15.99;100.00
71195;BME280;58908;51.426;7.714;2023-08-21T01:56:33;100452.25;;;15.95;100.00
71195;BME280;58908;51.426;7.714;2023-08-21T01:59:01;100448.75;;;15.94;100.00
71195;BME280;58908;51.426;7.714;2023-08-21T02:01:27;100443.97;;;15.99;100.00
71195;BME280;58908;51.426;7.714;2023-08-21T02:03:54;100447.50;;;16.00;100.00
71195;BME280;58908;51.426;7.714;2023-08-21T02:06:20;100445.13;;;15.95;100.00
71195;BME280;58908;51.426;7.714;2023-08-21T02:08:46;100445.31;;;15.92;100.00
71195;BME280;58908;51.426;7.714;2023-08-21T02:11:12;100436.38;;;15.93;100.00
71195;BME280;58908;51.426;7.714;2023-08-21T02:13:39;100441.19;;;15.88;100.00
71195;BME280;58908;51.426;7.714;2023-08-21T02:16:06;100443.19;;;15.85;100.00
71195;BME280;58908;51.426;7.714;2023-08-21T02:18:32;100447.97;;;15.80;100.00
71195;BME280;58908;51.426;7.714;2023-08-21T02:20:59;100437.03;;;15.84;100.00
71195;BME280;58908;51.426;7.714;2023-08-21T02:23:26;100434.06;;;15.89;100.00
71195;BME280;58908;51.426;7.714;2023-08-21T02:25:52;100429.16;;;16.08;100.00
71195;BME280;58908;51.426;7.714;2023-08-21T02:28:19;100424.81;;;16.07;100.00
71195;BME280;58908;51.426;7.714;2023-08-21T02:30:45;100423.97;;;16.06;100.00
71195;BME280;58908;51.426;7.714;2023-08-21T02:33:13;100420.22;;;16.09;100.00
71195;BME280;58908;51.426;7.714;2023-08-21T02:35:39;100421.09;;;16.09;100.00
71195;BME280;58908;51.426;7.714;2023-08-21T02:38:05;100426.81;;;16.03;100.00
71195;BME280;58908;51.426;7.714;2023-08-21T02:40:32;100424.47;;;16.11;100.00
71195;BME280;58908;51.426;7.714;2023-08-21T02:42:58;100429.06;;;16.09;100.00
71195;BME280;58908;51.426;7.714;2023-08-21T02:45:24;100410.75;;;16.05;100.00
71195;BME280;58908;51.426;7.714;2023-08-21T02:47:50;100416.59;;;15.97;100.00
71195;BME280;58908;51.426;7.714;2023-08-21T02:50:18;100421.50;;;15.91;100.00
71195;BME280;58908;51.426;7.714;2023-08-21T02:52:44;100416.28;;;15.89;100.00
71195;BME280;58908;51.426;7.714;2023-08-21T02:55:10;100418.66;;;16.06;100.00
71195;BME280;58908;51.426;7.714;2023-08-21T02:57:37;100415.84;;;16.08;100.00
71195;BME280;58908;51.426;7.714;2023-08-21T03:00:03;100420.00;;;15.99;100.00
71195;BME280;58908;51.426;7.714;2023-08-21T03:02:30;100414.56;;;15.88;100.00
71195;BME280;58908;51.426;7.714;2023-08-21T03:04:57;100422.56;;;15.88;100.00
71195;BME280;58908;51.426;7.714;2023-08-21T03:07:24;100421.59;;;15.89;100.00
71195;BME280;58908;51.426;7.714;2023-08-21T03:09:50;100424.13;;;15.78;100.00
71195;BME280;58908;51.426;7.714;2023-08-21T03:12:17;100425.09;;;15.77;100.00
71195;BME280;58908;51.426;7.714;2023-08-21T03:14:43;100423.69;;;15.72;100.00
71195;BME280;58908;51.426;7.714;2023-08-21T03:17:09;100430.94;;;15.70;100.00
71195;BME280;58908;51.426;7.714;2023-08-21T03:19:36;100431.84;;;15.56;100.00
71195;BME280;58908;51.426;7.714;2023-08-21T03:22:02;100431.09;;;15.54;100.00
71195;BME280;58908;51.426;7.714;2023-08-21T03:24:29;100437.44;;;15.39;100.00
71195;BME280;58908;51.426;7.714;2023-08-21T03:26:56;100430.66;;;15.48;100.00
71195;BME280;58908;51.426;7.714;2023-08-21T03:29:22;100436.50;;;15.53;100.00
71195;BME280;58908;51.426;7.714;2023-08-21T03:31:48;100433.66;;;15.56;100.00
71195;BME280;58908;51.426;7.714;2023-08-21T03:34:15;100429.19;;;15.56;100.00
71195;BME280;58908;51.426;7.714;2023-08-21T03:36:41;100428.44;;;15.54;100.00
71195;BME280;58908;51.426;7.714;2023-08-21T03:39:07;100419.59;;;15.54;100.00
71195;BME280;58908;51.426;7.714;2023-08-21T03:41:35;100423.13;;;15.54;100.00
71195;BME280;58908;51.426;7.714;2023-08-21T03:44:01;100420.16;;;15.59;100.00
71195;BME280;58908;51.426;7.714;2023-08-21T03:46:27;100422.59;;;15.62;100.00
71195;BME280;58908;51.426;7.714;2023-08-21T03:48:53;100418.75;;;15.53;100.00
71195;BME280;58908;51.426;7.714;2023-08-21T03:51:20;100415.16;;;15.54;100.00
71195;BME280;58908;51.426;7.714;2023-08-21T03:53:46;100416.25;;;15.64;100.00
71195;BME280;58908;51.426;7.714;2023-08-21T03:56:12;100419.41;;;15.69;100.00
71195;BME280;58908;51.426;7.714;2023-08-21T03:58:40;100421.00;;;15.59;100.00
71195;BME280;58908;51.426;7.714;2023-08-21T04:01:06;100422.91;;;15.57;100.00
71195;BME280;58908;51.426;7.714;2023-08-21T04:03:32;100429.84;;;15.60;100.00
71195;BME280;58908;51.426;7.714;2023-08-21T04:05:59;100425.34;;;15.60;100.00
71195;BME280;58908;51.426;7.714;2023-08-21T04:08:25;100424.06;;;15.53;100.00
71195;BME280;58908;51.426;7.714;2023-08-21T04:10:51;100427.78;;;15.51;100.00
71195;BME280;58908;51.426;7.714;2023-08-21T04:13:18;100426.75;;;15.53;100.00
71195;BME280;58908;51.426;7.714;2023-08-21T04:15:46;100427.13;;;15.47;100.00
71195;BME280;58908;51.426;7.714;2023-08-21T04:18:12;100434.66;;;15.41;100.00
71195;BME280;58908;51.426;7.714;2023-08-21T04:20:38;100437.84;;;15.33;100.00
71195;BME280;58908;51.426;7.714;2023-08-21T04:23:04;100434.44;;;15.31;100.00
71195;BME280;58908;51.426;7.714;2023-08-21T04:25:31;100429.66;;;15.36;100.00
71195;BME280;58908;51.426;7.714;2023-08-21T04:27:57;100432.66;;;15.44;100.00
71195;BME280;58908;51.426;7.714;2023-08-21T04:30:23;100431.34;;;15.37;100.00
71195;BME280;58908;51.426;7.714;2023-08-21T04:32:51;100432.50;;;15.33;100.00
71195;BME280;58908;51.426;7.714;2023-08-21T04:35:17;100432.78;;;15.29;100.00
71195;BME280;58908;51.426;7.714;2023-08-21T04:37:45;100430.53;;;15.23;100.00
71195;BME280;58908;51.426;7.714;2023-08-21T04:40:12;100437.44;;;15.25;100.00
71195;BME280;58908;51.426;7.714;2023-08-21T04:42:39;100443.53;;;15.27;100.00
71195;BME280;58908;51.426;7.714;2023-08-21T04:45:05;100442.56;;;15.28;100.00
71195;BME280;58908;51.426;7.714;2023-08-21T04:47:32;100447.81;;;15.30;100.00
71195;BME280;58908;51.426;7.714;2023-08-21T04:50:00;100447.41;;;15.36;100.00
71195;BME280;58908;51.426;7.714;2023-08-21T04:52:26;100447.34;;;15.50;100.00
71195;BME280;58908;51.426;7.714;2023-08-21T04:54:52;100447.53;;;15.73;100.00
71195;BME280;58908;51.426;7.714;2023-08-21T04:57:19;100454.09;;;15.94;100.00
71195;BME280;58908;51.426;7.714;2023-08-21T04:59:46;100455.91;;;16.06;100.00
71195;BME280;58908;51.426;7.714;2023-08-21T05:02:12;100448.09;;;16.03;100.00
71195;BME280;58908;51.426;7.714;2023-08-21T05:04:38;100450.13;;;16.12;100.00
71195;BME280;58908;51.426;7.714;2023-08-21T05:07:06;100449.72;;;16.18;100.00
71195;BME280;58908;51.426;7.714;2023-08-21T05:09:32;100454.94;;;16.32;100.00
71195;BME280;58908;51.426;7.714;2023-08-21T05:11:59;100455.91;;;16.31;100.00
71195;BME280;58908;51.426;7.714;2023-08-21T05:14:25;100452.50;;;16.29;100.00
71195;BME280;58908;51.426;7.714;2023-08-21T05:16:51;100455.50;;;16.25;100.00
71195;BME280;58908;51.426;7.714;2023-08-21T05:19:18;100449.50;;;16.21;100.00
71195;BME280;58908;51.426;7.714;2023-08-21T05:21:46;100452.69;;;16.26;100.00
71195;BME280;58908;51.426;7.714;2023-08-21T05:24:13;100464.44;;;16.36;100.00
71195;BME280;58908;51.426;7.714;2023-08-21T05:26:40;100463.16;;;16.42;100.00
71195;BME280;58908;51.426;7.714;2023-08-21T05:29:06;100466.56;;;16.31;100.00
71195;BME280;58908;51.426;7.714;2023-08-21T05:31:32;100470.28;;;16.29;100.00
71195;BME280;58908;51.426;7.714;2023-08-21T05:33:58;100469.97;;;16.33;100.00
71195;BME280;58908;51.426;7.714;2023-08-21T05:36:25;100471.91;;;16.44;100.00
71195;BME280;58908;51.426;7.714;2023-08-21T05:38:51;100468.50;;;16.42;100.00
71195;BME280;58908;51.426;7.714;2023-08-21T05:41:19;100475.66;;;16.41;100.00
71195;BME280;58908;51.426;7.714;2023-08-21T05:43:45;100482.63;;;16.30;100.00
71195;BME280;58908;51.426;7.714;2023-08-21T05:46:12;100475.84;;;16.38;100.00
71195;BME280;58908;51.426;7.714;2023-08-21T05:48:39;100473.09;;;16.40;100.00
71195;BME280;58908;51.426;7.714;2023-08-21T05:51:05;100474.88;;;16.52;100.00
71195;BME280;58908;51.426;7.714;2023-08-21T05:53:31;100469.34;;;16.67;100.00
71195;BME280;58908;51.426;7.714;2023-08-21T05:55:57;100473.28;;;16.74;100.00
71195;BME280;58908;51.426;7.714;2023-08-21T05:58:25;100477.97;;;16.83;100.00
71195;BME280;58908;51.426;7.714;2023-08-21T06:00:55;100473.78;;;16.92;100.00
71195;BME280;58908;51.426;7.714;2023-08-21T06:03:21;100471.31;;;17.01;100.00
71195;BME280;58908;51.426;7.714;2023-08-21T06:05:48;100466.09;;;16.99;100.00
71195;BME280;58908;51.426;7.714;2023-08-21T06:08:14;100467.00;;;17.11;100.00
71195;BME280;58908;51.426;7.714;2023-08-21T06:10:40;100464.19;;;17.25;100.00
71195;BME280;58908;51.426;7.714;2023-08-21T06:13:06;100468.44;;;17.40;100.00
71195;BME280;58908;51.426;7.714;2023-08-21T06:15:34;100465.94;;;17.49;100.00
71195;BME280;58908;51.426;7.714;2023-08-21T06:18:00;100457.75;;;17.63;100.00
71195;BME280;58908;51.426;7.714;2023-08-21T06:20:27;100456.38;;;17.81;100.00
71195;BME280;58908;51.426;7.714;2023-08-21T06:22:53;100463.28;;;18.18;100.00
71195;BME280;58908;51.426;7.714;2023-08-21T06:25:19;100468.25;;;18.79;100.00
71195;BME280;58908;51.426;7.714;2023-08-21T06:27:47;100439.78;;;20.16;100.00
71195;BME280;58908;51.426;7.714;2023-08-21T06:30:13;100419.34;;;21.15;100.00
71195;BME280;58908;51.426;7.714;2023-08-21T06:32:43;100395.91;;;21.55;100.00
71195;BME280;58908;51.426;7.714;2023-08-21T06:35:09;100371.47;;;23.05;100.00
71195;BME280;58908;51.426;7.714;2023-08-21T06:37:35;100376.56;;;22.54;100.00
71195;BME280;58908;51.426;7.714;2023-08-21T06:40:02;100379.63;;;23.22;100.00
71195;BME280;58908;51.426;7.714;2023-08-21T06:42:28;100370.78;;;23.03;100.00
71195;BME280;58908;51.426;7.714;2023-08-21T06:44:54;100360.56;;;23.94;100.00
71195;BME280;58908;51.426;7.714;2023-08-21T06:47:20;100403.50;;;22.44;100.00
71195;BME280;58908;51.426;7.714;2023-08-21T06:49:48;100424.47;;;21.27;100.00
71195;BME280;58908;51.426;7.714;2023-08-21T06:52:15;100425.66;;;21.72;100.00
71195;BME280;58908;51.426;7.714;2023-08-21T06:54:42;100390.63;;;23.29;100.00
71195;BME280;58908;51.426;7.714;2023-08-21T06:57:08;100401.25;;;22.40;100.00
71195;BME280;58908;51.426;7.714;2023-08-21T06:59:34;100430.38;;;21.31;100.00
71195;BME280;58908;51.426;7.714;2023-08-21T07:02:01;100416.34;;;22.87;100.00
71195;BME280;58908;51.426;7.714;2023-08-21T07:04:27;100408.59;;;22.84;100.00
71195;BME280;58908;51.426;7.714;2023-08-21T07:06:55;100428.97;;;22.40;100.00
71195;BME280;58908;51.426;7.714;2023-08-21T07:09:21;100441.88;;;21.61;100.00
71195;BME280;58908;51.426;7.714;2023-08-21T07:11:47;100455.84;;;20.87;100.00
71195;BME280;58908;51.426;7.714;2023-08-21T07:14:13;100461.47;;;20.64;100.00
71195;BME280;58908;51.426;7.714;2023-08-21T07:16:42;100440.88;;;22.19;100.00
71195;BME280;58908;51.426;7.714;2023-08-21T07:19:08;100403.50;;;22.98;100.00
71195;BME280;58908;51.426;7.714;2023-08-21T07:21:34;100408.84;;;22.54;100.00
71195;BME280;58908;51.426;7.714;2023-08-21T07:24:04;100390.63;;;23.02;100.00
71195;BME280;58908;51.426;7.714;2023-08-21T07:26:31;100371.69;;;23.91;100.00
71195;BME280;58908;51.426;7.714;2023-08-21T07:28:57;100412.72;;;22.78;100.00
71195;BME280;58908;51.426;7.714;2023-08-21T07:31:23;100380.47;;;23.40;100.00
71195;BME280;58908;51.426;7.714;2023-08-21T07:33:50;100389.09;;;23.61;100.00
71195;BME280;58908;51.426;7.714;2023-08-21T07:36:16;100386.63;;;23.85;100.00
71195;BME280;58908;51.426;7.714;2023-08-21T07:38:43;100353.31;;;24.71;100.00
71195;BME280;58908;51.426;7.714;2023-08-21T07:41:11;100345.72;;;24.66;100.00
71195;BME280;58908;51.426;7.714;2023-08-21T07:43:37;100348.28;;;24.17;100.00
71195;BME280;58908;51.426;7.714;2023-08-21T07:46:04;100327.00;;;25.30;100.00
71195;BME280;58908;51.426;7.714;2023-08-21T07:48:30;100367.50;;;24.80;100.00
71195;BME280;58908;51.426;7.714;2023-08-21T07:50:57;100355.13;;;25.11;100.00
71195;BME280;58908;51.426;7.714;2023-08-21T07:53:23;100339.19;;;25.98;100.00
71195;BME280;58908;51.426;7.714;2023-08-21T07:55:49;100328.50;;;26.28;100.00
71195;BME280;58908;51.426;7.714;2023-08-21T07:58:17;100336.34;;;25.51;100.00
71195;BME280;58908;51.426;7.714;2023-08-21T08:00:44;100325.53;;;25.83;100.00
71195;BME280;58908;51.426;7.714;2023-08-21T08:03:10;100318.13;;;26.48;100.00
71195;BME280;58908;51.426;7.714;2023-08-21T08:05:39;100328.59;;;26.43;99.50
71195;BME280;58908;51.426;7.714;2023-08-21T08:08:05;100303.84;;;26.70;96.07
71195;BME280;58908;51.426;7.714;2023-08-21T08:10:31;100307.13;;;27.41;96.97
71195;BME280;58908;51.426;7.714;2023-08-21T08:12:58;100302.81;;;27.54;95.96
71195;BME280;58908;51.426;7.714;2023-08-21T08:15:25;100289.28;;;27.01;92.01
71195;BME280;58908;51.426;7.714;2023-08-21T08:17:53;100307.59;;;26.91;95.65
71195;BME280;58908;51.426;7.714;2023-08-21T08:20:20;100327.72;;;26.04;96.75
71195;BME280;58908;51.426;7.714;2023-08-21T08:22:46;100329.31;;;26.45;97.24
71195;BME280;58908;51.426;7.714;2023-08-21T08:25:12;100349.13;;;26.29;100.00
71195;BME280;58908;51.426;7.714;2023-08-21T08:27:39;100347.31;;;26.06;100.00
71195;BME280;58908;51.426;7.714;2023-08-21T08:30:06;100344.75;;;26.28;100.00
71195;BME280;58908;51.426;7.714;2023-08-21T08:32:34;100356.94;;;25.76;100.00
71195;BME280;58908;51.426;7.714;2023-08-21T08:35:01;100356.91;;;25.60;100.00
71195;BME280;58908;51.426;7.714;2023-08-21T08:37:27;100361.72;;;25.17;100.00
71195;BME280;58908;51.426;7.714;2023-08-21T08:39:53;100375.88;;;24.36;100.00
71195;BME280;58908;51.426;7.714;2023-08-21T08:42:19;100382.97;;;24.63;100.00
71195;BME280;58908;51.426;7.714;2023-08-21T08:44:46;100395.47;;;23.78;100.00
71195;BME280;58908;51.426;7.714;2023-08-21T08:47:13;100400.16;;;23.76;100.00
71195;BME280;58908;51.426;7.714;2023-08-21T08:49:40;100396.94;;;23.55;100.00
71195;BME280;58908;51.426;7.714;2023-08-21T08:52:07;100397.78;;;23.73;100.00
71195;BME280;58908;51.426;7.714;2023-08-21T08:54:33;100401.25;;;23.48;100.00
71195;BME280;58908;51.426;7.714;2023-08-21T08:57:00;100397.09;;;23.53;100.00
71195;BME280;58908;51.426;7.714;2023-08-21T08:59:29;100386.94;;;24.51;100.00
71195;BME280;58908;51.426;7.714;2023-08-21T09:01:55;100367.22;;;24.91;100.00
71195;BME280;58908;51.426;7.714;2023-08-21T09:04:21;100343.09;;;25.87;100.00
71195;BME280;58908;51.426;7.714;2023-08-21T09:06:49;100327.47;;;26.29;100.00
71195;BME280;58908;51.426;7.714;2023-08-21T09:09:15;100334.28;;;25.77;100.00
71195;BME280;58908;51.426;7.714;2023-08-21T09:11:42;100330.94;;;25.83;100.00
71195;BME280;58908;51.426;7.714;2023-08-21T09:14:08;100339.00;;;25.27;100.00
71195;BME280;58908;51.426;7.714;2023-08-21T09:16:36;100339.72;;;25.85;100.00
71195;BME280;58908;51.426;7.714;2023-08-21T09:19:02;100328.22;;;26.07;100.00
71195;BME280;58908;51.426;7.714;2023-08-21T09:21:28;100326.03;;;25.71;100.00
71195;BME280;58908;51.426;7.714;2023-08-21T09:23:59;100329.44;;;25.89;100.00
71195;BME280;58908;51.426;7.714;2023-08-21T09:26:29;100318.94;;;25.94;100.00
71195;BME280;58908;51.426;7.714;2023-08-21T09:28:56;100324.31;;;25.54;100.00
71195;BME280;58908;51.426;7.714;2023-08-21T09:31:29;100326.72;;;25.89;100.00
71195;BME280;58908;51.426;7.714;2023-08-21T09:33:55;100325.34;;;25.93;100.00
71195;BME280;58908;51.426;7.714;2023-08-21T09:36:22;100293.38;;;26.97;95.62
71195;BME280;58908;51.426;7.714;2023-08-21T09:38:50;100303.00;;;27.00;97.19
71195;BME280;58908;51.426;7.714;2023-08-21T09:41:20;100255.78;;;27.98;89.69
71195;BME280;58908;51.426;7.714;2023-08-21T09:43:46;100311.94;;;26.15;95.78
71195;BME280;58908;51.426;7.714;2023-08-21T09:46:13;100282.84;;;27.47;93.28
71195;BME280;58908;51.426;7.714;2023-08-21T09:48:40;100292.31;;;27.29;95.11
71195;BME280;58908;51.426;7.714;2023-08-21T09:51:07;100281.84;;;27.48;93.27
71195;BME280;58908;51.426;7.714;2023-08-21T09:53:33;100294.63;;;27.17;94.53
71195;BME280;58908;51.426;7.714;2023-08-21T09:55:59;100292.38;;;27.21;92.30
71195;BME280;58908;51.426;7.714;2023-08-21T09:58:29;100283.16;;;27.52;92.84
71195;BME280;58908;51.426;7.714;2023-08-21T10:00:56;100287.41;;;26.71;91.31
71195;BME280;58908;51.426;7.714;2023-08-21T10:03:23;100299.56;;;26.83;94.12
71195;BME280;58908;51.426;7.714;2023-08-21T10:05:49;100300.81;;;27.26;93.48
71195;BME280;58908;51.426;7.714;2023-08-21T10:08:18;100301.78;;;26.80;93.20
71195;BME280;58908;51.426;7.714;2023-08-21T10:10:45;100280.97;;;27.70;91.42
71195;BME280;58908;51.426;7.714;2023-08-21T10:13:12;100267.84;;;27.59;88.49
71195;BME280;58908;51.426;7.714;2023-08-21T10:15:39;100279.22;;;26.41;89.87
71195;BME280;58908;51.426;7.714;2023-08-21T10:18:18;100247.72;;;27.76;86.62
71195;BME280;58908;51.426;7.714;2023-08-21T10:20:45;100260.00;;;28.15;87.81
71195;BME280;58908;51.426;7.714;2023-08-21T10:23:23;100273.69;;;27.03;90.67
71195;BME280;58908;51.426;7.714;2023-08-21T10:25:49;100278.31;;;26.95;91.67
71195;BME280;58908;51.426;7.714;2023-08-21T10:28:20;100294.59;;;26.87;93.15
71195;BME280;58908;51.426;7.714;2023-08-21T10:30:47;100288.25;;;27.02;92.61
71195;BME280;58908;51.426;7.714;2023-08-21T10:33:13;100292.66;;;26.73;92.33
71195;BME280;58908;51.426;7.714;2023-08-21T10:35:40;100285.91;;;26.99;94.35
71195;BME280;58908;51.426;7.714;2023-08-21T10:38:07;100296.56;;;26.70;93.47
71195;BME280;58908;51.426;7.714;2023-08-21T10:40:33;100289.97;;;26.65;92.73
71195;BME280;58908;51.426;7.714;2023-08-21T10:43:00;100299.38;;;26.77;94.13
71195;BME280;58908;51.426;7.714;2023-08-21T10:45:27;100300.81;;;26.10;94.25
71195;BME280;58908;51.426;7.714;2023-08-21T10:47:55;100305.47;;;26.40;95.80
71195;BME280;58908;51.426;7.714;2023-08-21T10:50:22;100303.63;;;26.79;93.59
71195;BME280;58908;51.426;7.714;2023-08-21T10:52:48;100301.53;;;26.89;93.86
71195;BME280;58908;51.426;7.714;2023-08-21T10:55:17;100290.72;;;27.42;92.70
71195;BME280;58908;51.426;7.714;2023-08-21T10:57:45;100269.00;;;28.01;89.38
71195;BME280;58908;51.426;7.714;2023-08-21T11:00:12;100273.16;;;27.75;90.40
71195;BME280;58908;51.426;7.714;2023-08-21T11:02:40;100282.63;;;27.34;90.73
71195;BME280;58908;51.426;7.714;2023-08-21T11:05:08;100294.47;;;27.11;92.75
71195;BME280;58908;51.426;7.714;2023-08-21T11:07:38;100304.25;;;26.43;94.56
71195;BME280;58908;51.426;7.714;2023-08-21T11:10:06;100317.03;;;26.10;96.14
71195;BME280;58908;51.426;7.714;2023-08-21T11:12:33;100315.31;;;26.25;95.88
71195;BME280;58908;51.426;7.714;2023-08-21T11:14:59;100329.81;;;26.40;97.81
71195;BME280;58908;51.426;7.714;2023-08-21T11:17:26;100329.41;;;25.73;97.05
71195;BME280;58908;51.426;7.714;2023-08-21T11:19:52;100321.19;;;26.37;95.69
71195;BME280;58908;51.426;7.714;2023-08-21T11:22:25;100325.91;;;26.51;95.56
71195;BME280;58908;51.426;7.714;2023-08-21T11:25:00;100328.06;;;26.63;96.48
71195;BME280;58908;51.426;7.714;2023-08-21T11:27:35;100303.19;;;26.98;93.04
71195;BME280;58908;51.426;7.714;2023-08-21T11:30:05;100303.34;;;26.66;93.08
71195;BME280;58908;51.426;7.714;2023-08-21T11:32:36;100302.72;;;26.87;93.45
71195;BME280;58908;51.426;7.714;2023-08-21T11:35:02;100316.84;;;26.20;95.15
71195;BME280;58908;51.426;7.714;2023-08-21T11:37:30;100326.25;;;26.40;96.33
71195;BME280;58908;51.426;7.714;2023-08-21T11:39:57;100300.47;;;26.68;93.29
71195;BME280;58908;51.426;7.714;2023-08-21T11:42:29;100309.28;;;25.99;95.14
71195;BME280;58908;51.426;7.714;2023-08-21T11:44:56;100316.31;;;26.32;95.36
71195;BME280;58908;51.426;7.714;2023-08-21T11:47:23;100314.00;;;26.68;94.99
71195;BME280;58908;51.426;7.714;2023-08-21T11:50:01;100305.41;;;26.02;92.48
71195;BME280;58908;51.426;7.714;2023-08-21T11:52:29;100303.66;;;26.25;93.40
71195;BME280;58908;51.426;7.714;2023-08-21T11:54:58;100303.63;;;26.33;92.88
71195;BME280;58908;51.426;7.714;2023-08-21T11:57:29;100298.78;;;26.12;91.96
71195;BME280;58908;51.426;7.714;2023-08-21T11:59:58;100297.53;;;26.31;92.63
71195;BME280;58908;51.426;7.714;2023-08-21T12:02:25;100294.94;;;26.45;92.00
71195;BME280;58908;51.426;7.714;2023-08-21T12:04:52;100301.31;;;26.14;93.99
71195;BME280;58908;51.426;7.714;2023-08-21T12:07:18;100295.41;;;26.18;93.40
71195;BME280;58908;51.426;7.714;2023-08-21T12:09:46;100304.34;;;26.19;93.94
71195;BME280;58908;51.426;7.714;2023-08-21T12:12:14;100298.38;;;26.39;93.45
71195;BME280;58908;51.426;7.714;2023-08-21T12:14:40;100289.09;;;26.26;92.53
71195;BME280;58908;51.426;7.714;2023-08-21T12:17:07;100300.94;;;26.25;92.96
71195;BME280;58908;51.426;7.714;2023-08-21T12:19:33;100301.03;;;25.93;92.61
71195;BME280;58908;51.426;7.714;2023-08-21T12:22:00;100306.16;;;26.34;93.39
71195;BME280;58908;51.426;7.714;2023-08-21T12:24:26;100283.75;;;26.64;90.58
71195;BME280;58908;51.426;7.714;2023-08-21T12:26:54;100284.84;;;26.78;90.92
71195;BME280;58908;51.426;7.714;2023-08-21T12:29:27;100299.38;;;26.77;91.37
71195;BME280;58908;51.426;7.714;2023-08-21T12:31:53;100282.84;;;26.72;90.24
71195;BME280;58908;51.426;7.714;2023-08-21T12:34:20;100264.28;;;26.91;88.81
71195;BME280;58908;51.426;7.714;2023-08-21T12:36:50;100271.25;;;26.86;89.24
71195;BME280;58908;51.426;7.714;2023-08-21T12:39:21;100283.19;;;26.99;91.01
71195;BME280;58908;51.426;7.714;2023-08-21T12:41:49;100282.69;;;26.96;90.97